sensor_id;sensor_type;location;lat;lon;timestamp;P1;durP1;ratioP1;P2;durP2;ratioP2
9398;SDS011;4739;49.334;8.792;2022-12-16T00:01:03;9.80;;;7.30;;
9398;SDS011;4739;49.334;8.792;2022-12-16T00:03:40;10.13;;;7.30;;
9398;SDS011;4739;49.334;8.792;2022-12-16T00:06:07;8.83;;;6.93;;
9398;SDS011;4739;49.334;8.792;2022-12-16T00:08:34;8.77;;;6.97;;
9398;SDS011;4739;49.334;8.792;2022-12-16T00:11:01;9.40;;;6.50;;
9398;SDS011;4739;49.334;8.792;2022-12-16T00:13:28;11.87;;;7.17;;
9398;SDS011;4739;49.334;8.792;2022-12-16T00:15:55;10.53;;;6.93;;
9398;SDS011;4739;49.334;8.792;2022-12-16T00:18:20;9.50;;;6.83;;
9398;SDS011;4739;49.334;8.792;2022-12-16T00:20:46;10.00;;;6.50;;
9398;SDS011;4739;49.334;8.792;2022-12-16T00:23:14;8.47;;;6.50;;
9398;SDS011;4739;49.334;8.792;2022-12-16T00:25:43;11.80;;;7.80;;
9398;SDS011;4739;49.334;8.792;2022-12-16T00:28:11;9.53;;;7.37;;
9398;SDS011;4739;49.334;8.792;2022-12-16T00:30:38;8.33;;;6.77;;
9398;SDS011;4739;49.334;8.792;2022-12-16T00:33:05;8.57;;;6.30;;
9398;SDS011;4739;49.334;8.792;2022-12-16T00:35:31;9.70;;;6.37;;
9398;SDS011;4739;49.334;8.792;2022-12-16T00:37:57;7.20;;;6.20;;
9398;SDS011;4739;49.334;8.792;2022-12-16T00:40:23;8.20;;;6.10;;
9398;SDS011;4739;49.334;8.792;2022-12-16T00:42:49;9.13;;;6.73;;
9398;SDS011;4739;49.334;8.792;2022-12-16T00:45:15;9.70;;;6.63;;
9398;SDS011;4739;49.334;8.792;2022-12-16T00:47:40;8.90;;;6.83;;
9398;SDS011;4739;49.334;8.792;2022-12-16T00:50:06;10.67;;;7.63;;
9398;SDS011;4739;49.334;8.792;2022-12-16T00:52:32;7.70;;;6.20;;
9398;SDS011;4739;49.334;8.792;2022-12-16T00:54:58;9.37;;;6.27;;
9398;SDS011;4739;49.334;8.792;2022-12-16T00:57:24;9.53;;;7.10;;
9398;SDS011;4739;49.334;8.792;2022-12-16T00:59:50;8.43;;;6.23;;
9398;SDS011;4739;49.334;8.792;2022-12-16T01:02:16;7.50;;;5.77;;
9398;SDS011;4739;49.334;8.792;2022-12-16T01:04:41;10.97;;;6.93;;
9398;SDS011;4739;49.334;8.792;2022-12-16T01:07:07;8.43;;;6.10;;
9398;SDS011;4739;49.334;8.792;2022-12-16T01:09:33;8.33;;;5.80;;
9398;SDS011;4739;49.334;8.792;2022-12-16T01:11:59;8.53;;;6.53;;
9398;SDS011;4739;49.334;8.792;2022-12-16T01:14:25;9.03;;;6.13;;
9398;SDS011;4739;49.334;8.792;2022-12-16T01:16:50;9.10;;;6.40;;
9398;SDS011;4739;49.334;8.792;2022-12-16T01:19:16;6.97;;;5.60;;
9398;SDS011;4739;49.334;8.792;2022-12-16T01:21:42;8.23;;;6.40;;
9398;SDS011;4739;49.334;8.792;2022-12-16T01:24:08;9.07;;;6.37;;
9398;SDS011;4739;49.334;8.792;2022-12-16T01:26:35;31.53;;;22.87;;
9398;SDS011;4739;49.334;8.792;2022-12-16T01:29:00;12.50;;;9.50;;
9398;SDS011;4739;49.334;8.792;2022-12-16T01:31:26;10.93;;;8.40;;
9398;SDS011;4739;49.334;8.792;2022-12-16T01:33:52;10.07;;;7.97;;
9398;SDS011;4739;49.334;8.792;2022-12-16T01:36:18;9.70;;;6.60;;
9398;SDS011;4739;49.334;8.792;2022-12-16T01:38:44;9.20;;;6.60;;
9398;SDS011;4739;49.334;8.792;2022-12-16T01:41:10;8.30;;;6.27;;
9398;SDS011;4739;49.334;8.792;2022-12-16T01:43:37;9.17;;;6.30;;
9398;SDS011;4739;49.334;8.792;2022-12-16T01:53:48;8.23;;;5.77;;
9398;SDS011;4739;49.334;8.792;2022-12-16T01:56:17;8.67;;;6.03;;
9398;SDS011;4739;49.334;8.792;2022-12-16T01:58:45;7.87;;;6.37;;
9398;SDS011;4739;49.334;8.792;2022-12-16T02:01:11;11.13;;;7.03;;
9398;SDS011;4739;49.334;8.792;2022-12-16T02:03:40;8.03;;;6.23;;
9398;SDS011;4739;49.334;8.792;2022-12-16T02:06:06;8.00;;;6.17;;
9398;SDS011;4739;49.334;8.792;2022-12-16T02:08:32;7.80;;;5.97;;
9398;SDS011;4739;49.334;8.792;2022-12-16T02:14:10;8.13;;;6.20;;
9398;SDS011;4739;49.334;8.792;2022-12-16T02:22:27;7.47;;;5.17;;
9398;SDS011;4739;49.334;8.792;2022-12-16T02:36:10;12.43;;;8.70;;
9398;SDS011;4739;49.334;8.792;2022-12-16T02:44:07;9.23;;;7.23;;
9398;SDS011;4739;49.334;8.792;2022-12-16T02:46:38;6.70;;;5.30;;
9398;SDS011;4739;49.334;8.792;2022-12-16T02:49:06;7.57;;;5.27;;
9398;SDS011;4739;49.334;8.792;2022-12-16T02:51:52;8.33;;;5.50;;
9398;SDS011;4739;49.334;8.792;2022-12-16T02:54:20;7.27;;;5.43;;
9398;SDS011;4739;49.334;8.792;2022-12-16T02:59:40;7.43;;;6.00;;
9398;SDS011;4739;49.334;8.792;2022-12-16T03:02:21;7.33;;;5.67;;
9398;SDS011;4739;49.334;8.792;2022-12-16T03:04:53;10.33;;;7.07;;
9398;SDS011;4739;49.334;8.792;2022-12-16T03:07:30;15.37;;;9.33;;
9398;SDS011;4739;49.334;8.792;2022-12-16T03:09:58;12.87;;;8.43;;
9398;SDS011;4739;49.334;8.792;2022-12-16T03:12:24;16.23;;;10.73;;
9398;SDS011;4739;49.334;8.792;2022-12-16T03:14:51;17.60;;;10.77;;
9398;SDS011;4739;49.334;8.792;2022-12-16T03:17:19;14.20;;;10.17;;
9398;SDS011;4739;49.334;8.792;2022-12-16T03:19:50;15.10;;;11.30;;
9398;SDS011;4739;49.334;8.792;2022-12-16T03:22:22;17.77;;;12.10;;
9398;SDS011;4739;49.334;8.792;2022-12-16T03:24:51;16.77;;;11.50;;
9398;SDS011;4739;49.334;8.792;2022-12-16T03:27:23;16.07;;;11.73;;
9398;SDS011;4739;49.334;8.792;2022-12-16T03:30:16;16.73;;;11.40;;
9398;SDS011;4739;49.334;8.792;2022-12-16T03:32:57;17.07;;;11.77;;
9398;SDS011;4739;49.334;8.792;2022-12-16T03:35:41;13.60;;;10.47;;
9398;SDS011;4739;49.334;8.792;2022-12-16T03:38:29;16.13;;;11.53;;
9398;SDS011;4739;49.334;8.792;2022-12-16T03:40:57;15.07;;;10.87;;
9398;SDS011;4739;49.334;8.792;2022-12-16T03:43:25;15.07;;;10.93;;
9398;SDS011;4739;49.334;8.792;2022-12-16T03:45:52;16.47;;;10.90;;
9398;SDS011;4739;49.334;8.792;2022-12-16T03:48:21;14.27;;;10.57;;
9398;SDS011;4739;49.334;8.792;2022-12-16T03:50:49;14.90;;;10.53;;
9398;SDS011;4739;49.334;8.792;2022-12-16T03:53:15;14.67;;;10.73;;
9398;SDS011;4739;49.334;8.792;2022-12-16T03:55:40;14.63;;;10.40;;
9398;SDS011;4739;49.334;8.792;2022-12-16T03:58:06;18.47;;;12.10;;
9398;SDS011;4739;49.334;8.792;2022-12-16T04:00:32;16.60;;;10.83;;
9398;SDS011;4739;49.334;8.792;2022-12-16T04:02:57;15.73;;;10.63;;
9398;SDS011;4739;49.334;8.792;2022-12-16T04:05:23;14.60;;;10.73;;
9398;SDS011;4739;49.334;8.792;2022-12-16T04:07:49;16.87;;;10.87;;
9398;SDS011;4739;49.334;8.792;2022-12-16T04:10:15;15.80;;;11.17;;
9398;SDS011;4739;49.334;8.792;2022-12-16T04:12:41;16.47;;;11.47;;
9398;SDS011;4739;49.334;8.792;2022-12-16T04:15:25;16.83;;;11.33;;
9398;SDS011;4739;49.334;8.792;2022-12-16T04:18:19;14.57;;;10.87;;
9398;SDS011;4739;49.334;8.792;2022-12-16T04:21:03;17.57;;;11.40;;
9398;SDS011;4739;49.334;8.792;2022-12-16T04:23:48;17.03;;;11.00;;
9398;SDS011;4739;49.334;8.792;2022-12-16T04:26:34;14.80;;;10.53;;
9398;SDS011;4739;49.334;8.792;2022-12-16T04:29:20;15.27;;;10.43;;
9398;SDS011;4739;49.334;8.792;2022-12-16T04:31:46;14.90;;;10.97;;
9398;SDS011;4739;49.334;8.792;2022-12-16T04:34:12;16.57;;;11.80;;
9398;SDS011;4739;49.334;8.792;2022-12-16T04:36:49;14.83;;;9.87;;
9398;SDS011;4739;49.334;8.792;2022-12-16T04:39:35;18.57;;;10.57;;
9398;SDS011;4739;49.334;8.792;2022-12-16T04:42:19;16.43;;;10.87;;
9398;SDS011;4739;49.334;8.792;2022-12-16T04:45:03;16.20;;;10.33;;
9398;SDS011;4739;49.334;8.792;2022-12-16T04:47:47;17.07;;;10.77;;
9398;SDS011;4739;49.334;8.792;2022-12-16T04:50:31;16.20;;;10.27;;
9398;SDS011;4739;49.334;8.792;2022-12-16T04:53:15;17.60;;;10.83;;
9398;SDS011;4739;49.334;8.792;2022-12-16T04:55:59;17.10;;;11.90;;
9398;SDS011;4739;49.334;8.792;2022-12-16T04:58:43;14.90;;;10.90;;
9398;SDS011;4739;49.334;8.792;2022-12-16T05:01:27;15.97;;;10.23;;
9398;SDS011;4739;49.334;8.792;2022-12-16T05:04:11;14.23;;;10.00;;
9398;SDS011;4739;49.334;8.792;2022-12-16T05:06:55;15.03;;;10.97;;
9398;SDS011;4739;49.334;8.792;2022-12-16T05:09:39;16.10;;;10.77;;
9398;SDS011;4739;49.334;8.792;2022-12-16T05:12:23;16.47;;;10.13;;
9398;SDS011;4739;49.334;8.792;2022-12-16T05:15:07;16.80;;;10.20;;
9398;SDS011;4739;49.334;8.792;2022-12-16T05:17:51;16.07;;;10.27;;
9398;SDS011;4739;49.334;8.792;2022-12-16T05:20:35;17.37;;;10.93;;
9398;SDS011;4739;49.334;8.792;2022-12-16T05:23:19;21.10;;;10.70;;
9398;SDS011;4739;49.334;8.792;2022-12-16T05:26:04;24.73;;;14.83;;
9398;SDS011;4739;49.334;8.792;2022-12-16T05:28:47;19.17;;;12.33;;
9398;SDS011;4739;49.334;8.792;2022-12-16T05:31:31;17.80;;;10.90;;
9398;SDS011;4739;49.334;8.792;2022-12-16T05:34:15;18.07;;;11.10;;
9398;SDS011;4739;49.334;8.792;2022-12-16T05:36:59;17.17;;;11.03;;
9398;SDS011;4739;49.334;8.792;2022-12-16T05:39:44;17.87;;;10.97;;
9398;SDS011;4739;49.334;8.792;2022-12-16T05:42:27;16.67;;;10.47;;
9398;SDS011;4739;49.334;8.792;2022-12-16T05:45:12;18.47;;;10.67;;
9398;SDS011;4739;49.334;8.792;2022-12-16T05:47:56;15.77;;;10.67;;
9398;SDS011;4739;49.334;8.792;2022-12-16T05:50:39;21.30;;;11.20;;
9398;SDS011;4739;49.334;8.792;2022-12-16T05:53:23;17.83;;;10.70;;
9398;SDS011;4739;49.334;8.792;2022-12-16T05:56:07;18.57;;;10.63;;
9398;SDS011;4739;49.334;8.792;2022-12-16T05:58:51;15.03;;;10.60;;
9398;SDS011;4739;49.334;8.792;2022-12-16T06:01:35;16.43;;;9.97;;
9398;SDS011;4739;49.334;8.792;2022-12-16T06:04:20;16.73;;;10.03;;
9398;SDS011;4739;49.334;8.792;2022-12-16T06:07:03;16.30;;;9.80;;
9398;SDS011;4739;49.334;8.792;2022-12-16T06:09:47;15.00;;;10.13;;
9398;SDS011;4739;49.334;8.792;2022-12-16T06:12:31;16.17;;;9.90;;
9398;SDS011;4739;49.334;8.792;2022-12-16T06:15:15;15.83;;;11.07;;
9398;SDS011;4739;49.334;8.792;2022-12-16T06:17:59;15.10;;;10.00;;
9398;SDS011;4739;49.334;8.792;2022-12-16T06:20:43;17.07;;;9.27;;
9398;SDS011;4739;49.334;8.792;2022-12-16T06:23:27;15.90;;;10.30;;
9398;SDS011;4739;49.334;8.792;2022-12-16T06:26:12;18.43;;;10.00;;
9398;SDS011;4739;49.334;8.792;2022-12-16T06:28:56;16.13;;;9.93;;
9398;SDS011;4739;49.334;8.792;2022-12-16T06:31:40;16.50;;;9.97;;
9398;SDS011;4739;49.334;8.792;2022-12-16T06:34:24;19.03;;;10.23;;
9398;SDS011;4739;49.334;8.792;2022-12-16T06:37:08;14.97;;;9.83;;
9398;SDS011;4739;49.334;8.792;2022-12-16T06:39:52;16.00;;;9.87;;
9398;SDS011;4739;49.334;8.792;2022-12-16T06:42:39;15.93;;;10.10;;
9398;SDS011;4739;49.334;8.792;2022-12-16T06:45:24;16.13;;;9.17;;
9398;SDS011;4739;49.334;8.792;2022-12-16T06:48:08;19.07;;;10.50;;
9398;SDS011;4739;49.334;8.792;2022-12-16T06:50:52;23.63;;;11.63;;
9398;SDS011;4739;49.334;8.792;2022-12-16T06:53:36;19.90;;;10.67;;
9398;SDS011;4739;49.334;8.792;2022-12-16T06:56:22;17.30;;;9.93;;
9398;SDS011;4739;49.334;8.792;2022-12-16T06:59:07;18.50;;;10.50;;
9398;SDS011;4739;49.334;8.792;2022-12-16T07:01:51;17.87;;;10.83;;
9398;SDS011;4739;49.334;8.792;2022-12-16T07:04:35;15.80;;;10.57;;
9398;SDS011;4739;49.334;8.792;2022-12-16T07:07:19;16.47;;;10.07;;
9398;SDS011;4739;49.334;8.792;2022-12-16T07:10:03;17.80;;;10.67;;
9398;SDS011;4739;49.334;8.792;2022-12-16T07:12:47;17.67;;;10.73;;
9398;SDS011;4739;49.334;8.792;2022-12-16T07:15:31;20.60;;;11.50;;
9398;SDS011;4739;49.334;8.792;2022-12-16T07:18:15;21.53;;;10.57;;
9398;SDS011;4739;49.334;8.792;2022-12-16T07:20:59;16.17;;;10.70;;
9398;SDS011;4739;49.334;8.792;2022-12-16T07:23:42;19.67;;;11.17;;
9398;SDS011;4739;49.334;8.792;2022-12-16T07:26:26;22.20;;;11.60;;
9398;SDS011;4739;49.334;8.792;2022-12-16T07:29:10;19.33;;;11.03;;
9398;SDS011;4739;49.334;8.792;2022-12-16T07:31:54;19.07;;;10.93;;
9398;SDS011;4739;49.334;8.792;2022-12-16T07:34:38;21.80;;;11.20;;
9398;SDS011;4739;49.334;8.792;2022-12-16T07:37:22;17.53;;;10.33;;
9398;SDS011;4739;49.334;8.792;2022-12-16T07:40:06;16.63;;;10.07;;
9398;SDS011;4739;49.334;8.792;2022-12-16T07:42:58;19.43;;;10.50;;
9398;SDS011;4739;49.334;8.792;2022-12-16T07:45:43;16.70;;;10.00;;
9398;SDS011;4739;49.334;8.792;2022-12-16T07:48:27;19.90;;;10.67;;
9398;SDS011;4739;49.334;8.792;2022-12-16T07:51:11;17.80;;;10.23;;
9398;SDS011;4739;49.334;8.792;2022-12-16T07:53:55;19.63;;;10.83;;
9398;SDS011;4739;49.334;8.792;2022-12-16T07:56:39;20.87;;;11.43;;
9398;SDS011;4739;49.334;8.792;2022-12-16T07:59:23;18.80;;;10.33;;
9398;SDS011;4739;49.334;8.792;2022-12-16T08:02:08;20.23;;;11.07;;
9398;SDS011;4739;49.334;8.792;2022-12-16T08:04:53;20.70;;;11.63;;
9398;SDS011;4739;49.334;8.792;2022-12-16T08:07:41;20.13;;;10.70;;
9398;SDS011;4739;49.334;8.792;2022-12-16T08:10:25;19.53;;;10.90;;
9398;SDS011;4739;49.334;8.792;2022-12-16T08:13:09;20.73;;;11.40;;
9398;SDS011;4739;49.334;8.792;2022-12-16T08:15:54;19.00;;;11.87;;
9398;SDS011;4739;49.334;8.792;2022-12-16T08:18:38;22.47;;;12.30;;
9398;SDS011;4739;49.334;8.792;2022-12-16T08:21:22;18.67;;;11.57;;
9398;SDS011;4739;49.334;8.792;2022-12-16T08:24:05;19.70;;;10.80;;
9398;SDS011;4739;49.334;8.792;2022-12-16T08:26:50;25.00;;;12.80;;
9398;SDS011;4739;49.334;8.792;2022-12-16T08:29:34;20.20;;;11.57;;
9398;SDS011;4739;49.334;8.792;2022-12-16T08:32:18;19.07;;;11.67;;
9398;SDS011;4739;49.334;8.792;2022-12-16T08:37:33;16.47;;;11.00;;
9398;SDS011;4739;49.334;8.792;2022-12-16T08:40:17;16.60;;;10.17;;
9398;SDS011;4739;49.334;8.792;2022-12-16T08:43:01;20.80;;;10.57;;
9398;SDS011;4739;49.334;8.792;2022-12-16T08:45:46;18.40;;;10.67;;
9398;SDS011;4739;49.334;8.792;2022-12-16T08:48:30;17.50;;;10.57;;
9398;SDS011;4739;49.334;8.792;2022-12-16T08:51:14;18.03;;;11.47;;
9398;SDS011;4739;49.334;8.792;2022-12-16T08:53:58;21.43;;;13.73;;
9398;SDS011;4739;49.334;8.792;2022-12-16T08:56:42;23.10;;;14.77;;
9398;SDS011;4739;49.334;8.792;2022-12-16T08:59:26;27.33;;;17.57;;
9398;SDS011;4739;49.334;8.792;2022-12-16T09:02:10;21.97;;;14.63;;
9398;SDS011;4739;49.334;8.792;2022-12-16T09:04:54;24.80;;;15.13;;
9398;SDS011;4739;49.334;8.792;2022-12-16T09:07:38;23.17;;;16.20;;
9398;SDS011;4739;49.334;8.792;2022-12-16T09:10:22;22.53;;;16.00;;
9398;SDS011;4739;49.334;8.792;2022-12-16T09:13:11;25.70;;;17.17;;
9398;SDS011;4739;49.334;8.792;2022-12-16T09:15:56;29.47;;;19.63;;
9398;SDS011;4739;49.334;8.792;2022-12-16T09:18:40;27.50;;;18.43;;
9398;SDS011;4739;49.334;8.792;2022-12-16T09:21:24;28.40;;;18.93;;
9398;SDS011;4739;49.334;8.792;2022-12-16T09:24:08;26.37;;;16.53;;
9398;SDS011;4739;49.334;8.792;2022-12-16T09:26:52;27.93;;;16.70;;
9398;SDS011;4739;49.334;8.792;2022-12-16T09:29:36;28.37;;;16.77;;
9398;SDS011;4739;49.334;8.792;2022-12-16T09:32:20;26.23;;;16.53;;
9398;SDS011;4739;49.334;8.792;2022-12-16T09:35:05;24.50;;;16.13;;
9398;SDS011;4739;49.334;8.792;2022-12-16T09:37:49;25.53;;;18.40;;
9398;SDS011;4739;49.334;8.792;2022-12-16T09:40:33;29.30;;;18.90;;
9398;SDS011;4739;49.334;8.792;2022-12-16T09:46:29;28.30;;;18.60;;
9398;SDS011;4739;49.334;8.792;2022-12-16T09:49:40;25.30;;;15.63;;
9398;SDS011;4739;49.334;8.792;2022-12-16T09:52:43;41.93;;;22.50;;
9398;SDS011;4739;49.334;8.792;2022-12-16T09:55:40;22.23;;;15.37;;
9398;SDS011;4739;49.334;8.792;2022-12-16T09:58:28;26.20;;;18.53;;
9398;SDS011;4739;49.334;8.792;2022-12-16T10:01:17;27.57;;;18.40;;
9398;SDS011;4739;49.334;8.792;2022-12-16T10:04:03;23.37;;;14.63;;
9398;SDS011;4739;49.334;8.792;2022-12-16T10:06:51;26.03;;;16.23;;
9398;SDS011;4739;49.334;8.792;2022-12-16T10:13:16;22.00;;;15.63;;
9398;SDS011;4739;49.334;8.792;2022-12-16T10:25:00;19.63;;;13.10;;
9398;SDS011;4739;49.334;8.792;2022-12-16T10:27:51;21.57;;;13.63;;
9398;SDS011;4739;49.334;8.792;2022-12-16T10:30:43;19.30;;;13.13;;
9398;SDS011;4739;49.334;8.792;2022-12-16T10:33:27;20.43;;;13.07;;
9398;SDS011;4739;49.334;8.792;2022-12-16T10:36:13;23.83;;;13.80;;
9398;SDS011;4739;49.334;8.792;2022-12-16T10:39:02;22.37;;;13.17;;
9398;SDS011;4739;49.334;8.792;2022-12-16T10:42:17;23.30;;;14.77;;
9398;SDS011;4739;49.334;8.792;2022-12-16T10:48:14;17.13;;;12.07;;
9398;SDS011;4739;49.334;8.792;2022-12-16T10:51:10;20.57;;;13.90;;
9398;SDS011;4739;49.334;8.792;2022-12-16T10:53:58;19.47;;;13.63;;
9398;SDS011;4739;49.334;8.792;2022-12-16T10:56:57;21.80;;;15.33;;
9398;SDS011;4739;49.334;8.792;2022-12-16T10:59:51;22.67;;;14.33;;
9398;SDS011;4739;49.334;8.792;2022-12-16T11:02:52;20.13;;;13.47;;
9398;SDS011;4739;49.334;8.792;2022-12-16T11:05:36;20.97;;;13.80;;
9398;SDS011;4739;49.334;8.792;2022-12-16T11:14:50;21.33;;;16.07;;
9398;SDS011;4739;49.334;8.792;2022-12-16T11:17:21;19.10;;;11.97;;
9398;SDS011;4739;49.334;8.792;2022-12-16T11:20:15;17.13;;;11.13;;
9398;SDS011;4739;49.334;8.792;2022-12-16T11:23:21;17.13;;;11.47;;
9398;SDS011;4739;49.334;8.792;2022-12-16T11:29:15;18.57;;;13.60;;
9398;SDS011;4739;49.334;8.792;2022-12-16T11:32:20;17.97;;;13.00;;
9398;SDS011;4739;49.334;8.792;2022-12-16T11:35:12;16.03;;;11.57;;
9398;SDS011;4739;49.334;8.792;2022-12-16T11:38:00;16.77;;;11.83;;
9398;SDS011;4739;49.334;8.792;2022-12-16T11:40:47;15.37;;;10.60;;
9398;SDS011;4739;49.334;8.792;2022-12-16T11:43:32;16.53;;;11.17;;
9398;SDS011;4739;49.334;8.792;2022-12-16T11:46:21;17.07;;;11.67;;
9398;SDS011;4739;49.334;8.792;2022-12-16T11:49:19;16.90;;;11.53;;
9398;SDS011;4739;49.334;8.792;2022-12-16T11:52:12;18.73;;;11.43;;
9398;SDS011;4739;49.334;8.792;2022-12-16T12:00:58;18.10;;;11.73;;
9398;SDS011;4739;49.334;8.792;2022-12-16T12:04:05;15.53;;;10.83;;
9398;SDS011;4739;49.334;8.792;2022-12-16T12:10:05;18.00;;;10.90;;
9398;SDS011;4739;49.334;8.792;2022-12-16T12:23:05;15.70;;;11.60;;
9398;SDS011;4739;49.334;8.792;2022-12-16T12:26:04;17.77;;;12.37;;
9398;SDS011;4739;49.334;8.792;2022-12-16T12:32:18;19.70;;;12.77;;
9398;SDS011;4739;49.334;8.792;2022-12-16T12:41:54;16.37;;;12.27;;
9398;SDS011;4739;49.334;8.792;2022-12-16T12:44:55;16.93;;;11.60;;
9398;SDS011;4739;49.334;8.792;2022-12-16T12:47:45;16.73;;;12.40;;
9398;SDS011;4739;49.334;8.792;2022-12-16T12:50:51;19.70;;;12.47;;
9398;SDS011;4739;49.334;8.792;2022-12-16T12:56:47;18.63;;;12.50;;
9398;SDS011;4739;49.334;8.792;2022-12-16T13:02:38;17.80;;;12.03;;
9398;SDS011;4739;49.334;8.792;2022-12-16T13:05:45;16.97;;;12.43;;
9398;SDS011;4739;49.334;8.792;2022-12-16T13:08:42;18.67;;;12.20;;
9398;SDS011;4739;49.334;8.792;2022-12-16T13:11:36;19.33;;;12.03;;
9398;SDS011;4739;49.334;8.792;2022-12-16T13:17:15;17.40;;;11.83;;
9398;SDS011;4739;49.334;8.792;2022-12-16T13:20:00;19.10;;;13.77;;
9398;SDS011;4739;49.334;8.792;2022-12-16T13:22:46;18.63;;;12.93;;
9398;SDS011;4739;49.334;8.792;2022-12-16T13:28:35;19.47;;;13.10;;
9398;SDS011;4739;49.334;8.792;2022-12-16T13:31:21;18.70;;;13.83;;
9398;SDS011;4739;49.334;8.792;2022-12-16T13:34:19;21.37;;;14.70;;
9398;SDS011;4739;49.334;8.792;2022-12-16T13:37:22;18.43;;;13.23;;
9398;SDS011;4739;49.334;8.792;2022-12-16T13:43:00;19.20;;;13.40;;
9398;SDS011;4739;49.334;8.792;2022-12-16T13:46:11;19.33;;;13.90;;
9398;SDS011;4739;49.334;8.792;2022-12-16T13:48:48;17.80;;;12.77;;
9398;SDS011;4739;49.334;8.792;2022-12-16T13:54:27;17.90;;;13.30;;
9398;SDS011;4739;49.334;8.792;2022-12-16T13:57:15;22.97;;;13.37;;
9398;SDS011;4739;49.334;8.792;2022-12-16T14:00:04;21.27;;;13.70;;
9398;SDS011;4739;49.334;8.792;2022-12-16T14:02:59;17.30;;;13.27;;
9398;SDS011;4739;49.334;8.792;2022-12-16T14:05:47;18.53;;;12.93;;
9398;SDS011;4739;49.334;8.792;2022-12-16T14:08:33;19.27;;;12.60;;
9398;SDS011;4739;49.334;8.792;2022-12-16T14:11:26;18.67;;;12.13;;
9398;SDS011;4739;49.334;8.792;2022-12-16T14:14:18;20.00;;;13.07;;
9398;SDS011;4739;49.334;8.792;2022-12-16T14:17:33;23.30;;;15.30;;
9398;SDS011;4739;49.334;8.792;2022-12-16T14:20:27;20.10;;;14.93;;
9398;SDS011;4739;49.334;8.792;2022-12-16T14:23:37;20.10;;;13.23;;
9398;SDS011;4739;49.334;8.792;2022-12-16T14:26:30;18.93;;;13.20;;
9398;SDS011;4739;49.334;8.792;2022-12-16T14:35:23;16.83;;;12.80;;
9398;SDS011;4739;49.334;8.792;2022-12-16T14:38:25;15.87;;;11.67;;
9398;SDS011;4739;49.334;8.792;2022-12-16T14:41:10;17.17;;;12.40;;
9398;SDS011;4739;49.334;8.792;2022-12-16T14:43:57;19.77;;;14.60;;
9398;SDS011;4739;49.334;8.792;2022-12-16T14:46:47;22.23;;;16.40;;
9398;SDS011;4739;49.334;8.792;2022-12-16T14:49:33;28.27;;;19.33;;
9398;SDS011;4739;49.334;8.792;2022-12-16T14:52:24;27.07;;;17.87;;
9398;SDS011;4739;49.334;8.792;2022-12-16T14:55:10;19.83;;;14.60;;
9398;SDS011;4739;49.334;8.792;2022-12-16T14:58:02;17.93;;;13.87;;
9398;SDS011;4739;49.334;8.792;2022-12-16T15:00:58;19.83;;;13.97;;
9398;SDS011;4739;49.334;8.792;2022-12-16T15:04:01;19.33;;;14.50;;
9398;SDS011;4739;49.334;8.792;2022-12-16T15:06:51;20.00;;;14.40;;
9398;SDS011;4739;49.334;8.792;2022-12-16T15:09:39;21.10;;;15.33;;
9398;SDS011;4739;49.334;8.792;2022-12-16T15:12:27;20.03;;;13.87;;
9398;SDS011;4739;49.334;8.792;2022-12-16T15:15:21;23.23;;;14.97;;
9398;SDS011;4739;49.334;8.792;2022-12-16T15:18:28;16.87;;;11.73;;
9398;SDS011;4739;49.334;8.792;2022-12-16T15:21:18;16.73;;;12.37;;
9398;SDS011;4739;49.334;8.792;2022-12-16T15:24:07;16.80;;;10.87;;
9398;SDS011;4739;49.334;8.792;2022-12-16T15:27:12;15.20;;;10.50;;
9398;SDS011;4739;49.334;8.792;2022-12-16T15:33:26;16.37;;;11.70;;
9398;SDS011;4739;49.334;8.792;2022-12-16T15:36:34;14.33;;;10.43;;
9398;SDS011;4739;49.334;8.792;2022-12-16T15:39:23;14.40;;;10.90;;
9398;SDS011;4739;49.334;8.792;2022-12-16T15:42:19;15.43;;;10.17;;
9398;SDS011;4739;49.334;8.792;2022-12-16T15:45:19;14.00;;;9.40;;
9398;SDS011;4739;49.334;8.792;2022-12-16T15:48:11;14.77;;;10.67;;
9398;SDS011;4739;49.334;8.792;2022-12-16T15:51:01;13.53;;;10.17;;
9398;SDS011;4739;49.334;8.792;2022-12-16T15:53:44;14.37;;;10.60;;
9398;SDS011;4739;49.334;8.792;2022-12-16T15:56:33;12.93;;;10.17;;
9398;SDS011;4739;49.334;8.792;2022-12-16T15:59:26;12.80;;;9.70;;
9398;SDS011;4739;49.334;8.792;2022-12-16T16:02:17;13.40;;;9.83;;
9398;SDS011;4739;49.334;8.792;2022-12-16T16:05:09;13.30;;;9.20;;
9398;SDS011;4739;49.334;8.792;2022-12-16T16:07:54;13.30;;;9.70;;
9398;SDS011;4739;49.334;8.792;2022-12-16T16:10:40;11.13;;;9.17;;
9398;SDS011;4739;49.334;8.792;2022-12-16T16:13:26;11.20;;;9.77;;
9398;SDS011;4739;49.334;8.792;2022-12-16T16:16:11;13.10;;;9.90;;
9398;SDS011;4739;49.334;8.792;2022-12-16T16:18:56;14.20;;;9.50;;
9398;SDS011;4739;49.334;8.792;2022-12-16T16:21:40;12.77;;;9.10;;
9398;SDS011;4739;49.334;8.792;2022-12-16T16:24:24;12.47;;;9.70;;
9398;SDS011;4739;49.334;8.792;2022-12-16T16:27:08;12.23;;;9.50;;
9398;SDS011;4739;49.334;8.792;2022-12-16T16:29:56;14.00;;;9.27;;
9398;SDS011;4739;49.334;8.792;2022-12-16T16:32:40;12.23;;;8.87;;
9398;SDS011;4739;49.334;8.792;2022-12-16T16:35:24;14.40;;;9.70;;
9398;SDS011;4739;49.334;8.792;2022-12-16T16:38:11;15.87;;;9.80;;
9398;SDS011;4739;49.334;8.792;2022-12-16T16:40:56;14.10;;;9.60;;
9398;SDS011;4739;49.334;8.792;2022-12-16T16:43:40;15.13;;;8.80;;
9398;SDS011;4739;49.334;8.792;2022-12-16T16:46:31;14.33;;;9.40;;
9398;SDS011;4739;49.334;8.792;2022-12-16T16:52:19;12.18;;;10.00;;
9398;SDS011;4739;49.334;8.792;2022-12-16T16:55:05;12.03;;;10.07;;
9398;SDS011;4739;49.334;8.792;2022-12-16T16:57:50;12.87;;;10.00;;
9398;SDS011;4739;49.334;8.792;2022-12-16T17:00:34;15.43;;;11.40;;
9398;SDS011;4739;49.334;8.792;2022-12-16T17:03:18;14.40;;;10.13;;
9398;SDS011;4739;49.334;8.792;2022-12-16T17:06:03;15.50;;;9.90;;
9398;SDS011;4739;49.334;8.792;2022-12-16T17:08:47;14.90;;;9.93;;
9398;SDS011;4739;49.334;8.792;2022-12-16T17:11:30;13.37;;;9.43;;
9398;SDS011;4739;49.334;8.792;2022-12-16T17:14:17;11.30;;;8.77;;
9398;SDS011;4739;49.334;8.792;2022-12-16T17:17:02;11.47;;;8.77;;
9398;SDS011;4739;49.334;8.792;2022-12-16T17:19:47;12.60;;;9.60;;
9398;SDS011;4739;49.334;8.792;2022-12-16T17:22:31;14.77;;;9.43;;
9398;SDS011;4739;49.334;8.792;2022-12-16T17:25:15;12.83;;;9.30;;
9398;SDS011;4739;49.334;8.792;2022-12-16T17:28:00;14.77;;;9.73;;
9398;SDS011;4739;49.334;8.792;2022-12-16T17:30:45;12.53;;;10.00;;
9398;SDS011;4739;49.334;8.792;2022-12-16T17:33:30;15.20;;;10.23;;
9398;SDS011;4739;49.334;8.792;2022-12-16T17:36:15;15.37;;;10.10;;
9398;SDS011;4739;49.334;8.792;2022-12-16T17:39:00;13.37;;;10.17;;
9398;SDS011;4739;49.334;8.792;2022-12-16T17:41:45;14.30;;;10.60;;
9398;SDS011;4739;49.334;8.792;2022-12-16T17:44:29;15.03;;;10.30;;
9398;SDS011;4739;49.334;8.792;2022-12-16T17:47:14;14.83;;;10.77;;
9398;SDS011;4739;49.334;8.792;2022-12-16T17:49:58;13.43;;;10.27;;
9398;SDS011;4739;49.334;8.792;2022-12-16T17:52:44;14.43;;;10.47;;
9398;SDS011;4739;49.334;8.792;2022-12-16T17:55:28;14.90;;;10.17;;
9398;SDS011;4739;49.334;8.792;2022-12-16T17:58:12;14.13;;;10.70;;
9398;SDS011;4739;49.334;8.792;2022-12-16T18:01:03;15.70;;;10.33;;
9398;SDS011;4739;49.334;8.792;2022-12-16T18:03:49;13.40;;;10.27;;
9398;SDS011;4739;49.334;8.792;2022-12-16T18:06:36;14.23;;;11.13;;
9398;SDS011;4739;49.334;8.792;2022-12-16T18:09:20;15.13;;;12.03;;
9398;SDS011;4739;49.334;8.792;2022-12-16T18:12:04;13.10;;;10.53;;
9398;SDS011;4739;49.334;8.792;2022-12-16T18:14:48;15.33;;;10.47;;
9398;SDS011;4739;49.334;8.792;2022-12-16T18:17:32;14.60;;;10.67;;
9398;SDS011;4739;49.334;8.792;2022-12-16T18:20:19;14.47;;;10.13;;
9398;SDS011;4739;49.334;8.792;2022-12-16T18:23:03;14.30;;;10.37;;
9398;SDS011;4739;49.334;8.792;2022-12-16T18:25:57;13.47;;;10.47;;
9398;SDS011;4739;49.334;8.792;2022-12-16T18:28:45;13.40;;;10.33;;
9398;SDS011;4739;49.334;8.792;2022-12-16T18:31:29;14.27;;;9.93;;
9398;SDS011;4739;49.334;8.792;2022-12-16T18:34:14;13.83;;;10.37;;